Timashevsk, Russia
Current Conditions -  °F | °C
As of 9:30 PM on Saturday 25 Oct 2014 (Local Time) from URKK Reporting Station
Clear Clear  
Wind Chill: 18°   Ceiling: Unl
Heat Index: 30°   Visibility: 6mi
Dew Point: 25°   Wind: 20mph
Humidity: 80%   Direction: 80°E
Pressure: 30.39"   Gusts: 27mph
Location:  45.61°N, 38.94°E
Report Text: URKK 251830Z 08009G12MPS CAVOK M01/M04 Q1029 NOSIG RMK QFE769SC065
Loading
Personal Weather Stations






























Interactive Weather Map
Tropical Storm Tracking
New forecast layout! Learn more

10-Day Weather Forecast

Advertisements
Track Severe Weather on mobile